Time;durP1;ratioP1;P1;durP2;ratioP2;P2;SDS_P1;SDS_P2;PMS_P1;PMS_P2;Temp;Humidity;BMP_temperature;BMP_pressure;BME280_temperature;BME280_humidity;BME280_pressure;Samples;Min_cycle;Max_cycle;Signal;HPM_P1;HPM_P2
2022/11/23 00:00:47;;;;;;;4.00;1.50;;;;;;;6.70;82.22;97375.53;4968878;28;104271;-62
2022/11/23 00:03:15;;;;;;;4.47;2.17;;;;;;;6.50;82.84;97379.69;4988537;28;103801;-63
2022/11/23 00:05:44;;;;;;;4.67;2.10;;;;;;;6.63;82.74;97385.66;4970401;28;102787;-62
2022/11/23 00:08:12;;;;;;;1.90;1.30;;;;;;;6.64;82.47;97381.25;4987444;28;103699;-63
2022/11/23 00:10:40;;;;;;;4.57;1.73;;;;;;;6.73;82.09;97380.56;4991693;28;103323;-63
2022/11/23 00:13:08;;;;;;;3.17;1.43;;;;;;;6.70;82.07;97381.63;4976165;28;103099;-63
2022/11/23 00:15:36;;;;;;;3.33;1.60;;;;;;;6.70;81.96;97386.03;4983389;28;103437;-62
2022/11/23 00:18:04;;;;;;;7.13;1.83;;;;;;;6.71;81.74;97383.28;4964096;28;104255;-62
2022/11/23 00:20:32;;;;;;;6.60;1.70;;;;;;;6.72;81.54;97378.88;4985911;28;103208;-62
2022/11/23 00:23:01;;;;;;;5.13;1.50;;;;;;;6.66;81.24;97372.31;4966852;28;102719;-62
2022/11/23 00:25:29;;;;;;;6.33;1.93;;;;;;;6.54;81.48;97375.06;4989263;28;103431;-62
2022/11/23 00:27:57;;;;;;;3.70;1.97;;;;;;;6.34;83.38;97379.22;4971579;28;103973;-62
2022/11/23 00:30:25;;;;;;;3.83;2.13;;;;;;;6.33;83.81;97383.59;4965532;28;103216;-62
2022/11/23 00:32:54;;;;;;;4.43;2.20;;;;;;;6.40;83.46;97384.81;4988694;28;102800;-62
2022/11/23 00:35:23;;;;;;;5.80;2.10;;;;;;;6.51;83.04;97385.78;4988434;28;102712;-62
2022/11/23 00:37:50;;;;;;;5.57;1.70;;;;;;;6.45;83.59;97383.63;4971260;28;104542;-62
2022/11/23 00:40:20;;;;;;;3.97;2.10;;;;;;;6.58;82.86;97377.31;4964365;28;103330;-62
2022/11/23 00:42:48;;;;;;;3.57;1.70;;;;;;;6.46;82.71;97377.44;4970967;28;102785;-62
2022/11/23 00:45:16;;;;;;;3.37;1.73;;;;;;;6.61;82.59;97377.09;4989524;28;103914;-62
2022/11/23 00:47:44;;;;;;;1.70;1.20;;;;;;;6.66;82.60;97374.09;4967170;28;103417;-62
2022/11/23 00:50:12;;;;;;;3.23;1.70;;;;;;;6.62;82.83;97380.56;4987432;28;103163;-62
2022/11/23 00:52:40;;;;;;;2.80;1.63;;;;;;;6.73;82.63;97372.69;4983836;28;102584;-62
2022/11/23 00:55:10;;;;;;;2.60;1.13;;;;;;;6.84;82.13;97383.19;4983785;28;104221;-62
2022/11/23 00:57:39;;;;;;;3.63;1.33;;;;;;;6.71;82.65;97374.59;4970967;28;105523;-62
2022/11/23 01:00:11;;;;;;;3.50;1.60;;;;;;;6.71;82.67;97377.22;4962826;28;103221;-62
2022/11/23 01:02:40;;;;;;;4.47;1.70;;;;;;;6.54;83.19;97375.88;4972873;28;102674;-62
2022/11/23 01:05:08;;;;;;;4.87;1.70;;;;;;;6.73;82.62;97375.31;4963375;28;103960;-62
2022/11/23 01:07:36;;;;;;;5.77;1.60;;;;;;;6.73;82.59;97373.53;4966963;28;104133;-62
2022/11/23 01:10:05;;;;;;;4.57;1.60;;;;;;;6.84;82.26;97376.16;4983844;28;103206;-62
2022/11/23 01:12:33;;;;;;;2.57;1.07;;;;;;;6.84;81.92;97377.94;4964981;28;102664;-62
2022/11/23 01:15:03;;;;;;;4.03;1.40;;;;;;;6.91;81.80;97376.47;4985790;28;102600;-62
2022/11/23 01:17:31;;;;;;;1.20;1.10;;;;;;;6.95;81.61;97375.31;4970936;28;104341;-62
2022/11/23 01:19:59;;;;;;;2.97;1.47;;;;;;;7.01;80.94;97366.94;4988722;28;103386;-62
2022/11/23 01:22:26;;;;;;;3.30;1.70;;;;;;;7.01;80.83;97369.56;4972449;28;102753;-62
2022/11/23 01:24:54;;;;;;;2.57;1.57;;;;;;;7.03;80.89;97372.91;4989329;28;102702;-62
2022/11/23 01:27:22;;;;;;;2.30;1.30;;;;;;;7.09;80.69;97375.06;4985162;28;103896;-62
2022/11/23 01:29:50;;;;;;;4.43;1.67;;;;;;;6.96;80.36;97382.22;4989738;28;103198;-62
2022/11/23 01:32:21;;;;;;;2.90;1.43;;;;;;;6.88;81.39;97381.97;4968528;28;103689;-62
2022/11/23 01:34:49;;;;;;;3.03;1.30;;;;;;;6.87;81.15;97380.31;4971337;28;102705;-62
2022/11/23 01:37:18;;;;;;;3.70;1.50;;;;;;;6.87;81.06;97377.69;4984104;28;103381;-62
2022/11/23 01:39:48;;;;;;;3.70;1.63;;;;;;;6.80;81.16;97382.56;4984084;28;103231;-62
2022/11/23 01:42:16;;;;;;;7.33;1.37;;;;;;;6.72;81.27;97384.97;4984478;28;102563;-62
2022/11/23 01:44:45;;;;;;;4.13;1.60;;;;;;;6.64;81.52;97383.88;4966848;28;103146;-62
2022/11/23 01:47:12;;;;;;;5.93;1.83;;;;;;;6.69;81.34;97390.44;4965709;28;104509;-62
2022/11/23 01:49:45;;;;;;;3.73;1.53;;;;;;;6.82;80.83;97392.97;4967266;28;103197;-62
2022/11/23 01:52:18;;;;;;;2.40;1.30;;;;;;;6.84;80.83;97399.78;4984368;28;102613;-62
2022/11/23 01:54:49;;;;;;;4.30;1.60;;;;;;;6.79;80.71;97398.47;4973533;28;103703;-62
2022/11/23 01:57:21;;;;;;;7.07;1.40;;;;;;;6.64;81.81;97394.38;4978841;28;104180;-62
2022/11/23 01:59:50;;;;;;;3.83;1.00;;;;;;;6.70;81.45;97393.91;4968445;28;103238;-62
2022/11/23 02:02:18;;;;;;;3.50;1.57;;;;;;;6.61;81.94;97386.75;4961399;28;102821;-62
2022/11/23 02:04:51;;;;;;;3.60;1.30;;;;;;;6.75;81.02;97395.22;4969367;28;103549;-62
2022/11/23 02:07:20;;;;;;;2.23;1.37;;;;;;;6.73;81.11;97391.91;4984749;28;103229;-62
2022/11/23 02:09:49;;;;;;;2.20;1.10;;;;;;;6.79;81.30;97406.34;4964908;28;104262;-62
2022/11/23 02:12:17;;;;;;;2.77;1.30;;;;;;;6.72;81.25;97399.88;4973362;28;102806;-61
2022/11/23 02:14:45;;;;;;;2.60;1.17;;;;;;;6.70;81.59;97404.41;4972437;28;103177;-62
2022/11/23 02:17:13;;;;;;;2.03;1.10;;;;;;;6.82;81.11;97396.41;4967808;28;104268;-62
2022/11/23 02:19:52;;;;;;;1.93;0.93;;;;;;;6.86;80.80;97403.09;4966963;28;105964;-62
2022/11/23 02:22:28;;;;;;;2.90;1.10;;;;;;;6.86;80.54;97407.50;4985537;28;102659;-62
2022/11/23 02:24:56;;;;;;;2.20;1.00;;;;;;;6.85;80.88;97408.47;4967490;28;103155;-62
2022/11/23 02:27:27;;;;;;;1.80;1.10;;;;;;;6.90;80.87;97401.09;4969585;28;104195;-62
2022/11/23 02:30:00;;;;;;;1.47;0.70;;;;;;;6.90;80.98;97406.34;4987638;28;104064;-62
2022/11/23 02:32:31;;;;;;;2.07;1.23;;;;;;;6.78;81.77;97404.66;4985215;28;102915;-62
2022/11/23 02:34:59;;;;;;;2.73;1.47;;;;;;;6.73;81.66;97410.28;4962649;28;102785;-62
2022/11/23 02:37:27;;;;;;;3.17;1.13;;;;;;;6.80;81.27;97408.81;4988318;28;104095;-62
2022/11/23 02:39:58;;;;;;;2.27;1.20;;;;;;;6.68;81.49;97404.50;4965788;28;104263;-62
2022/11/23 02:42:29;;;;;;;3.03;1.30;;;;;;;6.61;82.16;97410.34;4988448;28;102760;-62
2022/11/23 02:45:06;;;;;;;3.07;1.20;;;;;;;6.69;81.73;97410.59;4986596;28;103551;-62
2022/11/23 02:47:37;;;;;;;3.20;1.20;;;;;;;6.62;82.15;97409.41;4969214;28;104170;-63
2022/11/23 02:50:05;;;;;;;4.53;1.23;;;;;;;6.70;81.85;97414.91;4968775;28;104193;-62
2022/11/23 02:52:33;;;;;;;3.77;1.33;;;;;;;6.75;81.55;97407.50;4986585;28;102684;-62
2022/11/23 02:55:01;;;;;;;2.63;1.33;;;;;;;6.63;81.39;97411.06;4980462;28;104407;-62
2022/11/23 02:57:31;;;;;;;1.97;1.17;;;;;;;6.66;81.71;97410.84;4987623;28;104245;-62
2022/11/23 02:59:59;;;;;;;2.60;1.30;;;;;;;6.71;81.92;97411.34;4970830;28;104282;-62
2022/11/23 03:02:27;;;;;;;2.03;1.37;;;;;;;6.51;82.05;97418.13;4963406;28;102880;-62
2022/11/23 03:04:54;;;;;;;4.60;1.20;;;;;;;5.91;85.01;97426.16;4986251;28;104812;-61
2022/11/23 03:07:22;;;;;;;3.67;1.30;;;;;;;6.17;84.00;97419.81;4963470;28;104070;-61
2022/11/23 03:09:50;;;;;;;6.00;1.33;;;;;;;6.13;83.73;97428.84;4965898;28;104150;-62
2022/11/23 03:12:21;;;;;;;4.97;1.20;;;;;;;6.06;83.88;97425.03;4988854;28;102731;-62
2022/11/23 03:14:50;;;;;;;2.13;1.23;;;;;;;6.05;83.94;97425.97;4966064;28;104700;-62
2022/11/23 03:17:22;;;;;;;3.20;1.90;;;;;;;5.97;85.10;97430.94;4972240;28;105601;-61
2022/11/23 03:19:50;;;;;;;7.33;1.90;;;;;;;6.19;83.84;97427.56;4964792;28;103213;-62
2022/11/23 03:22:18;;;;;;;6.70;1.97;;;;;;;6.32;82.98;97423.91;4973969;28;102635;-62
2022/11/23 03:24:47;;;;;;;6.63;3.10;;;;;;;6.23;82.72;97421.94;4971201;28;102783;-62
2022/11/23 03:27:16;;;;;;;3.73;2.27;;;;;;;6.27;82.46;97428.66;4965326;28;105570;-62
2022/11/23 03:29:47;;;;;;;2.30;1.90;;;;;;;6.37;82.49;97421.75;4973900;28;103187;-62
2022/11/23 03:32:20;;;;;;;6.70;2.77;;;;;;;6.09;83.24;97416.91;4973178;28;102737;-62
2022/11/23 03:34:52;;;;;;;5.40;2.00;;;;;;;6.09;83.76;97422.16;4973666;28;102987;-62
2022/11/23 03:37:23;;;;;;;4.33;2.53;;;;;;;6.06;83.75;97424.19;4966883;28;103814;-62
2022/11/23 03:39:52;;;;;;;3.77;2.10;;;;;;;6.21;83.21;97416.00;4971166;28;105396;-60
2022/11/23 03:42:39;;;;;;;4.77;2.70;;;;;;;6.10;83.42;97423.81;4988758;28;102646;-60
2022/11/23 03:45:09;;;;;;;5.97;2.90;;;;;;;6.09;83.59;97424.78;4974855;28;104215;-60
2022/11/23 03:47:38;;;;;;;10.23;2.70;;;;;;;6.24;82.85;97414.94;4968377;28;103340;-60
2022/11/23 03:50:10;;;;;;;3.57;2.17;;;;;;;6.38;82.30;97417.34;4972599;28;103199;-60
2022/11/23 03:52:38;;;;;;;4.50;2.60;;;;;;;6.47;81.99;97410.56;4971261;28;102656;-60
2022/11/23 03:55:06;;;;;;;8.03;2.70;;;;;;;6.40;82.18;97418.06;4970034;28;102674;-60
2022/11/23 03:57:35;;;;;;;4.63;2.80;;;;;;;6.28;83.02;97405.88;4970517;28;103036;-60
2022/11/23 04:00:05;;;;;;;6.23;2.57;;;;;;;6.06;84.12;97411.91;4967873;28;106032;-61
2022/11/23 04:02:41;;;;;;;5.33;2.60;;;;;;;5.99;84.63;97409.84;4987873;28;102673;-61
2022/11/23 04:05:29;;;;;;;7.73;3.40;;;;;;;6.04;84.20;97405.94;4986103;28;102664;-60
2022/11/23 04:08:15;;;;;;;4.77;3.23;;;;;;;5.96;84.26;97405.66;4985424;28;103128;-60
2022/11/23 04:10:43;;;;;;;6.53;3.30;;;;;;;6.12;83.52;97395.69;4967840;28;105535;-60
2022/11/23 04:13:17;;;;;;;5.80;2.93;;;;;;;5.94;84.31;97398.88;4971403;28;102822;-61
2022/11/23 04:15:46;;;;;;;4.43;2.73;;;;;;;5.91;84.33;97402.56;4986500;28;102873;-60
2022/11/23 04:18:15;;;;;;;6.27;3.30;;;;;;;5.93;84.26;97402.41;4974597;28;104210;-60
2022/11/23 04:20:43;;;;;;;7.27;3.00;;;;;;;5.98;84.16;97398.50;4966564;28;104380;-60
2022/11/23 04:23:11;;;;;;;3.73;2.53;;;;;;;5.97;84.05;97396.84;4966829;28;103234;-60
2022/11/23 04:25:41;;;;;;;5.67;2.57;;;;;;;6.00;83.72;97396.63;4974925;28;104110;-59
2022/11/23 04:28:10;;;;;;;8.57;3.03;;;;;;;5.97;83.31;97393.41;4971073;28;104351;-59
2022/11/23 04:30:40;;;;;;;7.13;2.80;;;;;;;6.11;82.96;97394.03;4962442;28;104170;-59
2022/11/23 04:33:08;;;;;;;5.33;2.50;;;;;;;6.15;82.59;97392.84;4974087;28;103139;-59
2022/11/23 04:35:39;;;;;;;5.97;2.40;;;;;;;6.34;82.11;97401.00;4972230;28;102691;-59
2022/11/23 04:38:07;;;;;;;5.00;2.10;;;;;;;6.33;82.15;97388.84;4969366;28;104183;-59
2022/11/23 04:40:37;;;;;;;5.27;2.80;;;;;;;6.38;82.34;97396.38;4970233;28;103515;-59
2022/11/23 04:43:08;;;;;;;2.33;1.93;;;;;;;6.47;81.99;97394.84;4969252;28;103048;-59
2022/11/23 04:45:39;;;;;;;6.00;3.07;;;;;;;6.43;81.43;97388.16;4968229;28;103149;-62
2022/11/23 04:48:13;;;;;;;4.93;2.73;;;;;;;6.37;81.87;97403.41;4970137;28;103644;-62
2022/11/23 04:50:44;;;;;;;3.93;2.17;;;;;;;6.60;81.81;97400.81;4969647;28;105512;-59
2022/11/23 04:53:20;;;;;;;3.60;2.30;;;;;;;6.48;81.08;97394.72;4963968;28;102811;-58
2022/11/23 04:55:50;;;;;;;5.77;2.57;;;;;;;6.49;81.03;97388.50;4965452;28;104006;-58
2022/11/23 04:58:18;;;;;;;3.60;2.83;;;;;;;6.51;81.05;97393.66;4988487;28;104298;-58
2022/11/23 05:00:50;;;;;;;6.53;2.87;;;;;;;6.35;81.53;97381.69;4969601;28;103264;-58
2022/11/23 05:03:19;;;;;;;5.07;2.40;;;;;;;6.39;81.62;97385.78;4988500;28;102840;-58
2022/11/23 05:05:48;;;;;;;4.33;2.53;;;;;;;6.48;81.18;97392.09;4974655;28;102728;-58
2022/11/23 05:08:16;;;;;;;5.93;2.77;;;;;;;6.39;81.17;97391.03;4968620;28;104368;-58
2022/11/23 05:10:53;;;;;;;4.40;2.70;;;;;;;6.17;82.02;97398.84;4967517;28;102978;-59
2022/11/23 05:13:21;;;;;;;8.77;3.03;;;;;;;6.29;81.83;97397.91;4981888;28;102710;-58
2022/11/23 05:15:50;;;;;;;6.10;3.00;;;;;;;6.24;81.76;97399.19;4970376;28;104093;-61
2022/11/23 05:18:24;;;;;;;6.20;2.50;;;;;;;6.23;81.93;97400.97;4966471;28;105238;-60
2022/11/23 05:20:54;;;;;;;5.57;2.67;;;;;;;6.25;81.94;97388.59;4972042;28;104260;-60
2022/11/23 05:23:22;;;;;;;4.30;2.57;;;;;;;6.28;82.03;97388.38;4972361;28;102740;-60
2022/11/23 05:25:53;;;;;;;4.57;2.10;;;;;;;6.36;82.21;97383.38;4967646;28;103756;-60
2022/11/23 05:28:22;;;;;;;5.93;2.90;;;;;;;6.37;81.38;97385.03;4972082;28;103506;-59
2022/11/23 05:31:08;;;;;;;6.10;3.20;;;;;;;6.21;81.47;97387.16;4973987;28;103230;-60
2022/11/23 05:33:37;;;;;;;4.37;2.57;;;;;;;6.21;82.38;97387.16;4970295;28;102637;-60
2022/11/23 05:36:12;;;;;;;7.80;2.87;;;;;;;6.19;82.09;97386.44;4971988;28;105517;-60
2022/11/23 05:38:42;;;;;;;4.83;2.53;;;;;;;6.16;82.57;97385.81;4965422;28;104260;-60
2022/11/23 05:41:15;;;;;;;3.97;2.53;;;;;;;6.27;81.80;97389.31;4970150;28;104222;-60
2022/11/23 05:43:44;;;;;;;7.43;2.70;;;;;;;6.33;81.75;97391.47;4963809;28;102731;-59
2022/11/23 05:46:18;;;;;;;9.27;3.30;;;;;;;6.22;81.84;97388.00;4972474;28;103984;-62
2022/11/23 05:48:46;;;;;;;7.77;3.07;;;;;;;6.28;81.67;97387.53;4963348;28;104140;-61
2022/11/23 05:51:15;;;;;;;4.23;2.33;;;;;;;6.29;81.76;97383.94;4964175;28;104330;-62
2022/11/23 05:53:45;;;;;;;4.77;2.80;;;;;;;6.36;81.41;97382.53;4967918;28;102958;-62
2022/11/23 05:56:19;;;;;;;6.30;2.57;;;;;;;6.43;81.34;97379.31;4969810;28;103916;-60
2022/11/23 05:59:16;;;;;;;4.33;2.60;;;;;;;6.52;80.85;97387.44;4960971;28;103164;-60
2022/11/23 06:01:49;;;;;;;7.70;2.90;;;;;;;6.59;81.10;97384.25;4978881;28;103334;-62
2022/11/23 06:04:25;;;;;;;4.63;2.20;;;;;;;6.66;81.17;97389.84;4965939;28;102668;-60
2022/11/23 06:06:59;;;;;;;8.20;3.47;;;;;;;6.57;80.12;97378.25;4965781;28;103716;-60
2022/11/23 06:09:32;;;;;;;4.73;2.87;;;;;;;6.66;81.24;97380.19;4971493;28;103353;-60
2022/11/23 06:12:06;;;;;;;4.60;2.60;;;;;;;6.65;82.07;97380.31;4968461;28;105774;-60
2022/11/23 06:14:35;;;;;;;4.23;2.43;;;;;;;6.60;81.48;97375.41;4962908;28;102682;-60
2022/11/23 06:17:05;;;;;;;4.07;2.43;;;;;;;6.64;81.05;97381.25;4940052;28;103521;-60
2022/11/23 06:19:43;;;;;;;6.93;3.30;;;;;;;6.56;81.33;97381.03;4959796;28;104529;-60
2022/11/23 06:22:14;;;;;;;3.77;2.43;;;;;;;6.65;81.17;97381.13;4947762;28;106035;-60
2022/11/23 06:25:00;;;;;;;6.43;3.13;;;;;;;6.55;80.71;97374.09;4982638;28;102611;-60
2022/11/23 06:27:55;;;;;;;6.77;2.90;;;;;;;6.65;80.49;97382.94;4960976;28;103732;-60
2022/11/23 06:30:29;;;;;;;4.13;2.47;;;;;;;6.66;80.69;97385.44;4966279;28;103859;-60
2022/11/23 06:33:03;;;;;;;4.70;2.10;;;;;;;6.71;80.20;97387.72;4958552;28;105185;-60
2022/11/23 06:35:37;;;;;;;3.30;2.10;;;;;;;6.69;80.32;97384.34;4966408;28;102795;-60
2022/11/23 06:38:08;;;;;;;4.37;2.20;;;;;;;6.76;80.25;97386.41;4960318;28;103922;-60
2022/11/23 06:40:36;;;;;;;4.17;2.33;;;;;;;6.77;79.80;97387.22;4960098;28;104140;-60
2022/11/23 06:43:04;;;;;;;4.97;2.70;;;;;;;6.69;80.68;97381.72;4967941;28;103196;-60
2022/11/23 06:45:39;;;;;;;4.37;2.30;;;;;;;6.78;80.16;97383.66;4982205;28;102715;-60
2022/11/23 06:48:10;;;;;;;7.07;2.63;;;;;;;6.72;79.77;97392.00;4964298;28;103604;-60
2022/11/23 06:50:43;;;;;;;5.57;2.80;;;;;;;6.70;79.59;97396.53;4954133;28;104037;-60
2022/11/23 06:53:13;;;;;;;3.03;2.07;;;;;;;6.70;79.73;97397.38;4963273;28;105471;-60
2022/11/23 06:55:46;;;;;;;5.03;2.53;;;;;;;6.57;80.32;97399.25;4961278;28;102901;-62
2022/11/23 06:58:17;;;;;;;6.97;2.67;;;;;;;6.60;80.44;97396.41;4981892;28;103776;-60
2022/11/23 07:00:45;;;;;;;5.07;2.17;;;;;;;6.69;80.42;97400.09;4955089;28;102736;-60
2022/11/23 07:03:20;;;;;;;7.33;2.33;;;;;;;6.70;80.00;97399.16;4984454;28;103628;-60
2022/11/23 07:05:53;;;;;;;5.50;2.33;;;;;;;6.60;80.02;97395.56;4969640;28;103059;-60
2022/11/23 07:08:27;;;;;;;3.77;2.00;;;;;;;6.79;80.02;97403.72;4961288;28;104180;-60
2022/11/23 07:11:00;;;;;;;4.97;2.57;;;;;;;6.89;79.47;97408.13;4968160;28;105052;-61
2022/11/23 07:13:29;;;;;;;4.93;2.33;;;;;;;6.96;79.81;97409.31;4961897;28;104855;-60
2022/11/23 07:15:57;;;;;;;6.67;2.70;;;;;;;7.06;78.89;97409.44;4968902;28;102657;-60
2022/11/23 07:18:26;;;;;;;5.50;2.93;;;;;;;7.04;79.02;97411.34;4973532;28;104160;-60
2022/11/23 07:20:59;;;;;;;4.43;2.63;;;;;;;6.97;79.16;97412.78;4968706;28;104082;-60
2022/11/23 07:23:28;;;;;;;7.13;2.97;;;;;;;7.04;79.45;97413.13;4973054;28;104312;-60
2022/11/23 07:25:56;;;;;;;7.00;3.30;;;;;;;6.98;78.95;97414.44;4966947;28;102737;-60
2022/11/23 07:28:27;;;;;;;5.67;3.30;;;;;;;7.05;78.92;97413.00;4964227;28;103813;-60
2022/11/23 07:30:55;;;;;;;5.00;3.13;;;;;;;7.21;78.56;97413.50;4968102;28;104173;-60
2022/11/23 07:33:23;;;;;;;6.67;3.77;;;;;;;7.17;78.01;97417.31;4972656;28;105478;-62
2022/11/23 07:35:51;;;;;;;6.67;3.37;;;;;;;7.35;78.41;97423.75;4967911;28;102784;-62
2022/11/23 07:38:20;;;;;;;6.73;3.63;;;;;;;7.29;77.45;97421.59;4970144;28;102674;-62
2022/11/23 07:40:51;;;;;;;11.43;3.23;;;;;;;7.76;76.57;97419.56;4977552;28;104761;-62
2022/11/23 07:43:38;;;;;;;5.60;3.20;;;;;;;7.93;75.12;97421.69;4970900;28;104021;-62
2022/11/23 07:46:07;;;;;;;6.90;3.73;;;;;;;7.96;75.08;97429.31;4971006;28;103977;-62
2022/11/23 07:48:35;;;;;;;7.17;3.10;;;;;;;8.25;74.33;97433.03;4992869;28;102802;-60
2022/11/23 07:51:03;;;;;;;5.83;3.13;;;;;;;8.54;73.92;97433.25;4993969;28;104027;-62
2022/11/23 07:53:31;;;;;;;4.10;2.90;;;;;;;8.56;72.75;97432.16;4983741;28;103206;-60
2022/11/23 07:56:00;;;;;;;9.87;3.73;;;;;;;8.86;72.00;97430.53;4991625;28;102532;-60
2022/11/23 07:58:28;;;;;;;8.43;3.70;;;;;;;8.57;72.41;97436.47;4989857;28;102692;-60
2022/11/23 08:00:56;;;;;;;7.70;3.70;;;;;;;8.92;71.39;97430.03;4986811;28;104554;-63
2022/11/23 08:03:24;;;;;;;9.70;4.27;;;;;;;8.89;72.25;97431.13;4994391;28;103180;-62
2022/11/23 08:05:56;;;;;;;9.20;3.90;;;;;;;8.66;72.21;97440.97;4985771;28;102610;-62
2022/11/23 08:08:24;;;;;;;7.50;3.87;;;;;;;8.25;72.54;97433.03;4972359;28;103749;-62
2022/11/23 08:10:53;;;;;;;12.40;4.67;;;;;;;8.51;72.72;97429.09;4989411;28;103291;-62
2022/11/23 08:13:23;;;;;;;6.83;3.73;;;;;;;8.61;72.27;97437.91;4984149;28;103360;-62
2022/11/23 08:15:51;;;;;;;5.37;3.57;;;;;;;8.71;72.21;97436.16;4985521;28;102957;-62
2022/11/23 08:18:22;;;;;;;4.73;2.90;;;;;;;8.83;71.57;97428.16;4975595;28;103764;-62
2022/11/23 08:20:50;;;;;;;7.03;3.60;;;;;;;9.04;69.79;97436.88;4982782;28;103939;-63
2022/11/23 08:23:18;;;;;;;6.70;3.20;;;;;;;9.40;68.82;97431.06;4969357;28;103235;-62
2022/11/23 08:25:46;;;;;;;6.60;3.20;;;;;;;9.04;69.33;97431.63;4985566;28;102619;-62
2022/11/23 08:28:14;;;;;;;8.80;3.30;;;;;;;9.03;70.77;97429.94;4989836;28;103843;-62
2022/11/23 08:30:44;;;;;;;5.07;3.33;;;;;;;8.67;70.52;97433.91;4977283;28;103906;-60
2022/11/23 08:33:12;;;;;;;4.87;2.67;;;;;;;8.74;71.68;97435.88;4988844;28;103342;-60
2022/11/23 08:35:42;;;;;;;8.90;3.33;;;;;;;8.71;70.83;97433.50;4990508;28;102607;-61
2022/11/23 08:38:10;;;;;;;4.93;2.73;;;;;;;8.88;70.79;97436.50;4973858;28;102634;-61
2022/11/23 08:40:39;;;;;;;7.90;2.90;;;;;;;9.43;69.32;97428.13;4990534;28;103934;-59
2022/11/23 08:43:06;;;;;;;6.03;2.60;;;;;;;9.44;67.68;97435.09;4970369;28;104152;-59
2022/11/23 08:45:34;;;;;;;6.87;2.90;;;;;;;9.34;68.41;97434.22;4975385;28;102769;-59
2022/11/23 08:48:04;;;;;;;5.87;3.10;;;;;;;9.44;68.51;97432.44;4989383;28;103814;-59
2022/11/23 08:50:34;;;;;;;4.37;2.83;;;;;;;9.69;67.40;97431.97;4987261;28;104017;-59
2022/11/23 08:53:02;;;;;;;4.63;2.30;;;;;;;10.13;66.73;97427.19;4984992;28;103173;-60
2022/11/23 08:55:30;;;;;;;6.53;3.00;;;;;;;10.00;66.91;97426.59;4972465;28;102716;-58
2022/11/23 08:57:58;;;;;;;5.40;2.67;;;;;;;10.03;65.31;97437.72;4987614;28;103572;-59
2022/11/23 09:00:27;;;;;;;5.77;2.77;;;;;;;10.34;65.27;97433.16;4974687;28;104906;-59
2022/11/23 09:02:57;;;;;;;6.47;2.93;;;;;;;10.32;64.76;97432.47;4985271;28;104104;-59
2022/11/23 09:05:26;;;;;;;5.33;2.97;;;;;;;10.00;66.18;97437.97;4985521;28;102796;-59
2022/11/23 09:07:54;;;;;;;4.67;2.60;;;;;;;10.12;66.90;97436.03;4988635;28;102668;-59
2022/11/23 09:10:22;;;;;;;8.80;3.10;;;;;;;10.20;65.34;97431.78;4987723;28;104023;-59
2022/11/23 09:12:50;;;;;;;5.13;2.53;;;;;;;10.60;65.71;97426.34;4974714;28;104164;-59
2022/11/23 09:15:19;;;;;;;9.77;3.10;;;;;;;10.43;64.87;97429.69;4990206;28;102986;-59
2022/11/23 09:17:47;;;;;;;5.93;3.07;;;;;;;10.39;65.58;97433.56;4992114;28;102748;-58
2022/11/23 09:20:15;;;;;;;5.70;2.43;;;;;;;10.54;64.97;97426.06;4985686;28;103247;-59
2022/11/23 09:22:49;;;;;;;6.17;2.67;;;;;;;10.40;64.75;97429.97;4984086;28;103202;-60
2022/11/23 09:25:17;;;;;;;5.33;2.60;;;;;;;10.30;65.30;97434.44;4991529;28;103731;-59
2022/11/23 09:27:45;;;;;;;6.43;2.50;;;;;;;10.54;64.61;97439.25;4970754;28;102829;-59
2022/11/23 09:30:14;;;;;;;6.47;2.47;;;;;;;10.74;63.59;97430.34;4960437;28;104123;-59
2022/11/23 09:32:42;;;;;;;7.83;2.97;;;;;;;10.53;64.09;97430.50;4990202;28;103201;-59
2022/11/23 09:35:12;;;;;;;7.40;3.07;;;;;;;10.67;64.27;97427.41;4985876;28;102678;-59
2022/11/23 09:37:40;;;;;;;9.00;2.70;;;;;;;10.56;64.72;97424.94;4981610;28;104556;-59
2022/11/23 09:40:16;;;;;;;7.63;2.90;;;;;;;10.73;62.90;97426.84;4989579;28;104473;-59
2022/11/23 09:42:58;;;;;;;5.17;2.63;;;;;;;10.38;64.03;97429.28;4990757;28;103205;-59
2022/11/23 09:45:35;;;;;;;6.80;3.23;;;;;;;10.77;63.52;97428.25;4973331;28;103054;-61
2022/11/23 09:48:40;;;;;;;4.37;2.63;;;;;;;10.80;63.19;97427.13;4987825;28;102945;-61
2022/11/23 09:51:15;;;;;;;3.53;2.30;;;;;;;10.62;62.63;97429.66;4994039;28;103698;-61
2022/11/23 09:53:48;;;;;;;7.50;2.87;;;;;;;10.63;63.97;97419.94;4984231;28;103560;-61
2022/11/23 09:56:20;;;;;;;8.43;2.53;;;;;;;10.51;64.01;97427.19;4972684;28;102666;-61
2022/11/23 09:58:53;;;;;;;4.67;2.50;;;;;;;10.45;63.80;97423.28;4971623;28;102743;-61
2022/11/23 10:01:21;;;;;;;5.10;2.50;;;;;;;10.87;63.89;97421.13;4990477;28;103778;-62
2022/11/23 10:03:49;;;;;;;6.43;2.43;;;;;;;10.99;62.99;97422.63;4984362;28;103072;-61
2022/11/23 10:06:20;;;;;;;6.17;2.00;;;;;;;10.79;63.61;97407.81;4984736;28;102617;-61
2022/11/23 10:09:06;;;;;;;7.37;2.17;;;;;;;11.06;62.91;97412.28;4986260;28;103459;-61
2022/11/23 10:11:47;;;;;;;7.03;2.57;;;;;;;10.90;62.47;97407.63;4988937;28;102985;-61
2022/11/23 10:14:31;;;;;;;5.07;2.50;;;;;;;11.10;62.24;97412.84;4985992;28;103775;-61
2022/11/23 10:17:07;;;;;;;4.83;2.73;;;;;;;11.35;61.00;97402.44;4987869;28;102698;-61
2022/11/23 10:19:50;;;;;;;7.27;2.70;;;;;;;11.26;61.08;97397.19;4988905;28;103979;-61
2022/11/23 10:22:26;;;;;;;8.30;3.30;;;;;;;11.66;60.33;97400.31;4979629;28;104461;-61
2022/11/23 10:24:54;;;;;;;5.23;2.70;;;;;;;11.61;60.78;97384.06;4990052;28;103000;-61
2022/11/23 10:27:25;;;;;;;6.70;2.93;;;;;;;11.66;59.64;97397.69;4985241;28;103760;-61
2022/11/23 10:29:55;;;;;;;6.33;2.40;;;;;;;11.82;59.34;97387.28;4986812;28;103167;-61
2022/11/23 10:32:28;;;;;;;5.43;2.57;;;;;;;12.18;58.76;97396.09;4970407;28;103274;-61
2022/11/23 10:35:02;;;;;;;4.90;3.10;;;;;;;12.17;58.31;97399.72;4984946;28;102977;-61
2022/11/23 10:37:30;;;;;;;5.33;2.70;;;;;;;11.88;58.70;97397.28;4988308;28;102795;-62
2022/11/23 10:39:58;;;;;;;5.47;2.23;;;;;;;11.84;59.53;97395.94;4993354;28;103596;-61
2022/11/23 10:42:32;;;;;;;7.87;2.50;;;;;;;11.85;58.68;97400.22;4992488;28;104194;-61
2022/11/23 10:45:00;;;;;;;6.03;2.17;;;;;;;12.04;58.92;97394.78;4988795;28;104342;-62
2022/11/23 10:47:41;;;;;;;6.87;2.30;;;;;;;12.15;57.91;97394.56;4994105;28;102969;-62
2022/11/23 10:50:28;;;;;;;5.23;2.30;;;;;;;12.54;57.27;97391.59;4992952;28;103958;-61
2022/11/23 10:52:59;;;;;;;4.20;2.70;;;;;;;12.63;57.11;97393.31;4987733;28;103273;-61
2022/11/23 10:55:30;;;;;;;6.07;2.80;;;;;;;12.85;56.03;97387.50;4986810;28;103226;-62
2022/11/23 10:58:00;;;;;;;4.23;2.13;;;;;;;12.59;55.88;97389.28;4975668;28;102646;-61
2022/11/23 11:00:29;;;;;;;2.87;1.50;;;;;;;12.46;54.47;97383.59;4968292;28;103653;-61
2022/11/23 11:03:01;;;;;;;4.67;2.00;;;;;;;12.72;55.89;97379.09;4987657;28;104043;-61
2022/11/23 11:05:32;;;;;;;4.57;1.80;;;;;;;12.82;54.63;97387.81;4991155;28;103208;-61
2022/11/23 11:08:21;;;;;;;4.97;1.80;;;;;;;12.83;55.07;97373.56;4992220;28;102666;-62
2022/11/23 11:10:58;;;;;;;4.73;1.33;;;;;;;12.73;54.24;97383.44;4969107;28;103969;-61
2022/11/23 11:13:31;;;;;;;3.07;2.13;;;;;;;12.66;53.73;97377.91;4967408;28;104106;-61
2022/11/23 11:16:01;;;;;;;7.00;2.23;;;;;;;12.53;55.44;97368.72;4996655;28;103312;-61
2022/11/23 11:18:31;;;;;;;3.03;1.60;;;;;;;13.30;54.62;97377.47;4990070;28;102698;-62
2022/11/23 11:21:03;;;;;;;3.93;1.70;;;;;;;13.06;53.60;97374.69;4990259;28;104034;-61
2022/11/23 11:23:32;;;;;;;4.57;1.67;;;;;;;13.28;53.81;97371.50;4988473;28;103610;-62
2022/11/23 11:26:13;;;;;;;3.03;1.70;;;;;;;13.07;54.76;97367.56;4988869;28;103747;-61
2022/11/23 11:28:48;;;;;;;4.13;1.70;;;;;;;13.58;53.03;97366.66;4988551;28;102584;-62
2022/11/23 11:31:27;;;;;;;5.43;1.80;;;;;;;13.32;53.32;97362.25;4991559;28;102977;-62
2022/11/23 11:34:02;;;;;;;6.37;1.97;;;;;;;13.64;52.89;97358.84;4981389;28;103630;-61
2022/11/23 11:36:36;;;;;;;4.30;2.03;;;;;;;13.73;51.94;97357.06;4989719;28;103364;-62
2022/11/23 11:39:10;;;;;;;4.03;2.37;;;;;;;13.62;52.45;97347.56;4986284;28;102993;-62
2022/11/23 11:41:49;;;;;;;4.67;1.80;;;;;;;13.61;52.32;97345.94;4972886;28;103888;-62
2022/11/23 11:44:21;;;;;;;4.90;2.13;;;;;;;13.41;52.85;97354.31;4985540;28;103803;-61
2022/11/23 11:46:54;;;;;;;4.40;1.93;;;;;;;13.21;52.48;97349.28;4966614;28;104137;-62
2022/11/23 11:49:26;;;;;;;3.97;1.70;;;;;;;13.50;51.63;97345.41;4973009;28;102655;-62